Time;durP1;ratioP1;P1;durP2;ratioP2;P2;SDS_P1;SDS_P2;PMS_P1;PMS_P2;Temp;Humidity;BMP_temperature;BMP_pressure;BME280_temperature;BME280_humidity;BME280_pressure;Samples;Min_cycle;Max_cycle;Signal;HPM_P1;HPM_P2
2023/03/04 00:01:49;;;;;;;5.72;5.22;;;;;;;2.19;100.00;102123.28;6107487;23;20033;-76
2023/03/04 00:04:16;;;;;;;5.60;5.20;;;;;;;2.15;100.00;102116.34;6077425;23;20492;-76
2023/03/04 00:06:43;;;;;;;5.05;4.70;;;;;;;1.55;100.00;102033.16;6050783;23;21902;-73
2023/03/04 00:09:09;;;;;;;5.18;4.78;;;;;;;1.73;100.00;102055.69;6107747;23;20661;-72
2023/03/04 00:11:36;;;;;;;5.45;4.32;;;;;;;1.90;100.00;102085.13;6027073;23;20030;-72
2023/03/04 00:14:02;;;;;;;7.07;4.68;;;;;;;1.85;100.00;102066.13;6024749;23;20370;-76
2023/03/04 00:16:29;;;;;;;10.60;6.60;;;;;;;2.14;100.00;102122.38;6077690;23;20119;-75
2023/03/04 00:18:56;;;;;;;7.63;6.43;;;;;;;2.04;100.00;102098.16;6047272;23;20015;-77
2023/03/04 00:21:23;;;;;;;5.50;5.00;;;;;;;1.41;100.00;102008.91;6077817;23;20515;-78
2023/03/04 00:23:50;;;;;;;5.53;4.70;;;;;;;2.27;100.00;102144.91;6101155;23;20024;-76
2023/03/04 00:26:16;;;;;;;6.60;5.60;;;;;;;2.30;100.00;102137.13;6059326;23;20042;-77
2023/03/04 00:28:43;;;;;;;6.38;4.88;;;;;;;2.32;100.00;102132.84;6100299;23;20017;-74
2023/03/04 00:31:10;;;;;;;6.82;5.30;;;;;;;1.51;100.00;102034.84;6054187;23;20501;-75
2023/03/04 00:33:37;;;;;;;4.40;4.13;;;;;;;2.33;100.00;102136.31;6049764;23;20574;-74
2023/03/04 00:36:04;;;;;;;5.50;5.10;;;;;;;2.19;100.00;102095.66;6050967;23;20147;-74
2023/03/04 00:38:30;;;;;;;5.25;4.75;;;;;;;1.86;100.00;102035.91;6031537;23;20026;-75
2023/03/04 00:40:57;;;;;;;5.82;5.00;;;;;;;2.38;100.00;102122.50;6060042;23;20080;-72
2023/03/04 00:43:23;;;;;;;6.05;5.53;;;;;;;2.06;100.00;102077.44;6107684;23;20103;-75
2023/03/04 00:45:50;;;;;;;6.97;5.13;;;;;;;1.51;100.00;101974.50;6083846;23;20037;-74
2023/03/04 00:48:16;;;;;;;5.68;4.65;;;;;;;2.27;100.00;102095.69;6056845;23;20042;-73
2023/03/04 00:50:43;;;;;;;5.45;5.05;;;;;;;2.37;100.00;102113.00;6109158;23;20017;-74
2023/03/04 00:53:10;;;;;;;6.57;5.18;;;;;;;1.77;100.00;102016.03;6080766;23;20052;-75
2023/03/04 00:55:36;;;;;;;8.32;7.03;;;;;;;1.88;100.00;102024.72;6107352;23;20440;-76
2023/03/04 00:58:03;;;;;;;13.32;5.85;;;;;;;2.39;100.00;102108.69;6052793;23;20102;-73
2023/03/04 01:00:29;;;;;;;7.13;5.68;;;;;;;1.90;100.00;102017.81;6082405;23;20022;-76
2023/03/04 01:02:56;;;;;;;6.35;4.32;;;;;;;2.46;100.00;102104.41;6107373;23;20036;-77
2023/03/04 01:05:22;;;;;;;9.68;5.40;;;;;;;2.24;100.00;102053.38;6053876;23;20111;-77
2023/03/04 01:07:49;;;;;;;5.13;4.65;;;;;;;1.54;100.00;101958.97;6108834;23;20010;-75
2023/03/04 01:10:16;;;;;;;5.53;5.07;;;;;;;2.17;100.00;102057.66;6057449;23;20551;-75
2023/03/04 01:12:42;;;;;;;4.97;4.57;;;;;;;2.32;100.00;102087.94;6083105;23;20503;-72
2023/03/04 01:15:11;;;;;;;5.30;4.85;;;;;;;2.44;100.00;102095.75;6083681;23;20104;-75
2023/03/04 01:17:37;;;;;;;4.13;3.83;;;;;;;1.75;100.00;101974.63;6051427;23;20019;-75
2023/03/04 01:20:05;;;;;;;4.32;4.10;;;;;;;2.47;100.00;102103.56;6105818;23;20045;-74
2023/03/04 01:22:32;;;;;;;5.57;5.13;;;;;;;2.50;100.00;102097.50;6063674;23;20077;-75
2023/03/04 01:24:58;;;;;;;5.68;4.90;;;;;;;2.13;100.00;102030.03;6107454;23;20035;-76
2023/03/04 01:27:25;;;;;;;5.18;4.88;;;;;;;1.80;100.00;101959.09;6082083;23;20025;-74
2023/03/04 01:29:51;;;;;;;6.13;4.15;;;;;;;2.30;100.00;102038.69;6106868;23;20022;-75
2023/03/04 01:32:17;;;;;;;3.67;3.38;;;;;;;2.35;100.00;102051.69;6053410;23;20567;-75
2023/03/04 01:34:44;;;;;;;7.00;3.88;;;;;;;2.60;100.00;102081.97;6108622;23;20170;-76
2023/03/04 01:37:12;;;;;;;8.88;4.32;;;;;;;2.59;100.00;102082.00;6082183;23;20973;-76
2023/03/04 01:39:39;;;;;;;4.03;3.72;;;;;;;1.92;100.00;101955.69;6053307;23;20045;-75
2023/03/04 01:42:12;;;;;;;5.63;5.05;;;;;;;2.29;100.00;102028.38;6080264;23;20083;-75
2023/03/04 01:44:38;;;;;;;5.05;4.70;;;;;;;2.22;100.00;101998.97;6049539;23;20521;-75
2023/03/04 01:47:05;;;;;;;3.70;3.50;;;;;;;2.01;100.00;101949.72;6054395;23;20026;-77
2023/03/04 01:49:32;;;;;;;4.25;4.03;;;;;;;1.98;100.00;101945.38;6054324;23;20030;-76
2023/03/04 01:51:58;;;;;;;4.82;4.45;;;;;;;2.45;100.00;102024.09;6105960;23;20558;-75
2023/03/04 01:54:25;;;;;;;3.60;3.40;;;;;;;2.31;100.00;102000.75;6058158;23;20657;-76
2023/03/04 01:56:51;;;;;;;4.47;4.05;;;;;;;2.50;100.00;102012.00;6054856;23;20712;-74
2023/03/04 01:59:24;;;;;;;8.07;4.45;;;;;;;2.67;100.00;102046.59;6071730;23;20097;-74
2023/03/04 02:01:52;;;;;;;3.50;3.20;;;;;;;2.71;100.00;102050.94;6023958;23;20027;-76
2023/03/04 02:04:22;;;;;;;4.38;4.00;;;;;;;2.69;100.00;102041.44;6058833;23;20074;-76
2023/03/04 02:06:50;;;;;;;5.57;3.83;;;;;;;2.37;100.00;101992.97;6031934;23;20041;-75
2023/03/04 02:09:17;;;;;;;4.20;3.97;;;;;;;2.35;100.00;101976.56;6054126;23;20022;-77
2023/03/04 02:11:45;;;;;;;4.10;3.80;;;;;;;2.30;100.00;101980.84;6032659;23;20604;-75
2023/03/04 02:14:13;;;;;;;3.78;3.58;;;;;;;2.71;100.00;102040.56;6055453;23;20030;-76
2023/03/04 02:16:40;;;;;;;3.75;3.53;;;;;;;2.75;100.00;102054.41;6062082;23;20032;-75
2023/03/04 02:19:14;;;;;;;8.73;4.57;;;;;;;2.31;100.00;101978.28;6059212;23;20021;-76
2023/03/04 02:21:41;;;;;;;4.80;3.75;;;;;;;2.48;100.00;102001.63;6077506;23;20025;-75
2023/03/04 02:24:29;;;;;;;4.93;4.47;;;;;;;2.72;100.00;102033.66;6057871;23;20030;-75
2023/03/04 02:26:56;;;;;;;4.78;3.65;;;;;;;2.26;100.00;101977.38;6028464;23;20022;-75
2023/03/04 02:29:23;;;;;;;4.97;4.57;;;;;;;2.53;100.00;102001.66;6056178;23;20026;-75
2023/03/04 02:31:51;;;;;;;3.50;3.30;;;;;;;2.67;100.00;102018.09;6087377;23;20030;-73
2023/03/04 02:34:21;;;;;;;8.43;3.33;;;;;;;2.55;100.00;102000.78;6057629;23;20120;-75
2023/03/04 02:36:49;;;;;;;4.38;4.07;;;;;;;2.77;100.00;102027.63;6060447;23;20025;-75
2023/03/04 02:39:27;;;;;;;4.53;4.22;;;;;;;2.80;100.00;102030.19;6043832;23;20034;-76
2023/03/04 02:41:54;;;;;;;3.22;3.10;;;;;;;2.82;100.00;102027.59;6080852;23;20026;-74
2023/03/04 02:44:24;;;;;;;3.35;3.15;;;;;;;2.81;100.00;102023.31;6034400;23;20097;-74
2023/03/04 02:46:51;;;;;;;3.72;3.53;;;;;;;2.82;100.00;102021.56;6081104;23;20026;-73
2023/03/04 02:49:19;;;;;;;3.67;3.47;;;;;;;2.70;100.00;101996.50;6026980;23;20037;-75
2023/03/04 02:51:46;;;;;;;4.95;4.55;;;;;;;2.21;100.00;101947.19;6084680;23;20646;-74
2023/03/04 02:54:20;;;;;;;17.45;4.15;;;;;;;2.20;100.00;101912.63;6054411;23;20081;-74
2023/03/04 02:56:52;;;;;;;3.10;3.00;;;;;;;2.68;100.00;101993.03;6024585;23;20258;-77
2023/03/04 02:59:20;;;;;;;8.45;3.58;;;;;;;2.84;100.00;102002.53;6069352;23;20030;-75
2023/03/04 03:01:46;;;;;;;3.72;3.45;;;;;;;2.39;100.00;101937.72;6102086;23;20521;-74
2023/03/04 03:04:13;;;;;;;13.10;4.00;;;;;;;2.21;100.00;101903.16;6078069;23;20225;-75
2023/03/04 03:06:40;;;;;;;4.35;3.95;;;;;;;2.33;100.00;101926.47;6049448;23;20026;-75
2023/03/04 03:09:07;;;;;;;3.45;3.30;;;;;;;2.34;100.00;101944.59;6108432;23;20030;-72
2023/03/04 03:11:33;;;;;;;4.40;3.97;;;;;;;2.15;100.00;101919.53;6079067;23;20142;-75
2023/03/04 03:14:01;;;;;;;3.22;3.05;;;;;;;2.33;100.00;101950.66;6053753;23;20064;-74
2023/03/04 03:16:27;;;;;;;3.60;3.40;;;;;;;1.38;100.00;101787.31;6078031;23;20128;-73
2023/03/04 03:18:54;;;;;;;15.07;3.65;;;;;;;2.35;100.00;101951.53;6103334;23;20044;-75
2023/03/04 03:21:20;;;;;;;5.25;3.72;;;;;;;2.65;100.00;102008.59;6026651;23;20054;-76
2023/03/04 03:23:47;;;;;;;3.20;3.05;;;;;;;2.45;100.00;101962.78;6103053;23;20036;-74
2023/03/04 03:26:14;;;;;;;3.30;3.10;;;;;;;2.70;100.00;102002.53;6036525;23;20022;-76
2023/03/04 03:28:41;;;;;;;4.72;4.32;;;;;;;2.67;100.00;101989.59;6104075;23;20566;-75
2023/03/04 03:31:07;;;;;;;3.33;3.17;;;;;;;2.21;100.00;101911.78;6054939;23;20246;-74
2023/03/04 03:33:33;;;;;;;9.13;3.85;;;;;;;2.54;100.00;101961.91;6081418;23;20428;-75
2023/03/04 03:36:00;;;;;;;3.10;3.00;;;;;;;2.42;100.00;101944.63;6060427;23;20642;-77
2023/03/04 03:38:27;;;;;;;3.72;3.45;;;;;;;2.24;100.00;101929.91;6108533;23;20046;-75
2023/03/04 03:40:53;;;;;;;3.67;3.47;;;;;;;2.73;100.00;101986.13;6061874;23;20418;-74
2023/03/04 03:43:20;;;;;;;3.08;2.97;;;;;;;1.37;100.00;101793.34;6103175;23;20029;-74
2023/03/04 03:45:46;;;;;;;4.45;3.60;;;;;;;2.39;100.00;101949.81;6077135;23;20030;-75
2023/03/04 03:48:13;;;;;;;10.18;3.72;;;;;;;2.26;100.00;101920.41;6077436;23;20083;-74
2023/03/04 03:50:39;;;;;;;3.70;3.50;;;;;;;2.74;100.00;101988.72;6078146;23;20042;-73
2023/03/04 03:53:06;;;;;;;2.97;2.88;;;;;;;2.87;100.00;102017.28;6105438;23;20087;-75
2023/03/04 03:55:32;;;;;;;3.00;2.90;;;;;;;2.87;100.00;102006.91;6079322;23;20422;-74
2023/03/04 03:57:58;;;;;;;3.00;2.90;;;;;;;2.59;100.00;101960.19;6051388;23;20206;-75
2023/03/04 04:00:25;;;;;;;7.25;3.58;;;;;;;2.85;100.00;102004.28;6081273;23;20038;-73
2023/03/04 04:02:54;;;;;;;3.35;3.25;;;;;;;2.87;100.00;101996.53;6080199;23;20459;-74
2023/03/04 04:05:21;;;;;;;3.60;3.40;;;;;;;2.72;100.00;101979.22;6078452;23;20375;-72
2023/03/04 04:07:47;;;;;;;3.33;3.20;;;;;;;2.91;100.00;102024.19;6107761;23;20056;-76
2023/03/04 04:10:14;;;;;;;3.08;2.97;;;;;;;3.02;100.00;102006.03;6052574;23;20057;-73
2023/03/04 04:12:40;;;;;;;3.72;3.42;;;;;;;3.03;100.00;101999.97;6082997;23;20046;-77
2023/03/04 04:15:09;;;;;;;4.13;3.72;;;;;;;2.53;100.00;101917.00;6082237;23;20044;-76
2023/03/04 04:17:45;;;;;;;5.38;4.00;;;;;;;2.45;100.00;101898.00;6058228;23;20632;-77
2023/03/04 04:20:11;;;;;;;17.38;4.13;;;;;;;2.53;100.00;101890.22;6057751;23;20026;-73
2023/03/04 04:22:37;;;;;;;3.25;3.15;;;;;;;3.18;100.00;101999.97;6082877;23;20036;-75
2023/03/04 04:25:05;;;;;;;3.30;3.10;;;;;;;3.16;100.00;101989.56;6061444;23;20077;-74
2023/03/04 04:27:31;;;;;;;5.78;5.28;;;;;;;2.73;100.00;101916.16;6106156;23;20615;-74
2023/03/04 04:29:57;;;;;;;3.67;3.47;;;;;;;2.98;100.00;101936.00;6086074;23;20026;-76
2023/03/04 04:32:24;;;;;;;3.70;3.53;;;;;;;3.10;100.00;101961.06;6055806;23;20127;-73
2023/03/04 04:34:50;;;;;;;3.38;3.17;;;;;;;2.68;100.00;101874.66;6115547;23;20030;-76
2023/03/04 04:37:17;;;;;;;3.15;3.05;;;;;;;3.23;100.00;101966.22;6066827;23;20021;-72
2023/03/04 04:39:43;;;;;;;3.20;3.10;;;;;;;2.93;100.00;101916.16;6103657;23;20538;-73
2023/03/04 04:42:10;;;;;;;3.00;2.90;;;;;;;2.39;100.00;101820.28;6054772;23;20018;-76
2023/03/04 04:44:37;;;;;;;3.38;3.17;;;;;;;3.25;100.00;101969.69;6108922;23;20063;-77
2023/03/04 04:47:06;;;;;;;3.60;3.40;;;;;;;2.71;100.00;101871.22;6054675;23;20101;-75
2023/03/04 04:49:32;;;;;;;6.57;3.53;;;;;;;2.99;100.00;101914.41;6081895;23;20464;-75
2023/03/04 04:51:59;;;;;;;3.83;3.55;;;;;;;3.32;100.00;101974.88;6051722;23;20038;-75
2023/03/04 04:54:25;;;;;;;3.00;2.90;;;;;;;3.31;100.00;101964.50;6104759;23;20046;-77
2023/03/04 04:56:52;;;;;;;2.90;2.80;;;;;;;2.47;100.00;101828.06;6055936;23;20049;-75
2023/03/04 04:59:18;;;;;;;4.25;3.85;;;;;;;3.08;100.00;101934.25;6109620;23;20021;-77
2023/03/04 05:01:45;;;;;;;3.42;3.22;;;;;;;3.29;100.00;101967.09;6051952;23;20034;-74
2023/03/04 05:04:11;;;;;;;2.92;2.83;;;;;;;3.15;100.00;101946.38;6108894;23;20282;-73
2023/03/04 05:06:38;;;;;;;4.13;3.92;;;;;;;2.99;100.00;101926.50;6081215;23;20371;-75
2023/03/04 05:09:05;;;;;;;3.10;3.00;;;;;;;2.83;100.00;101888.47;6056110;23;20113;-76
2023/03/04 05:11:31;;;;;;;2.95;2.85;;;;;;;3.20;100.00;101947.19;6082215;23;20042;-73
2023/03/04 05:14:00;;;;;;;3.10;3.00;;;;;;;2.93;100.00;101905.78;6029666;23;20021;-75
2023/03/04 05:16:26;;;;;;;3.15;3.05;;;;;;;2.63;100.00;101845.31;6106416;23;20026;-74
2023/03/04 05:18:53;;;;;;;3.05;2.95;;;;;;;2.12;100.00;101757.22;6054400;23;20006;-76
2023/03/04 05:21:19;;;;;;;3.70;3.53;;;;;;;3.18;100.00;101955.88;6077791;23;20050;-77
2023/03/04 05:23:46;;;;;;;3.88;3.60;;;;;;;3.28;100.00;101980.94;6081705;23;20354;-74
2023/03/04 05:26:16;;;;;;;5.63;3.30;;;;;;;3.29;100.00;101976.63;6079010;23;20432;-76
2023/03/04 05:28:43;;;;;;;3.78;3.58;;;;;;;3.04;100.00;101932.53;6052657;23;20018;-75
2023/03/04 05:31:10;;;;;;;10.05;3.35;;;;;;;3.17;100.00;101962.78;6081202;23;20659;-76
2023/03/04 05:33:37;;;;;;;3.22;3.13;;;;;;;3.00;100.00;101934.25;6106768;23;20081;-75
2023/03/04 05:36:05;;;;;;;5.03;4.07;;;;;;;3.20;100.00;101961.91;6082138;23;20363;-75
2023/03/04 05:38:32;;;;;;;3.88;3.60;;;;;;;2.72;100.00;101891.94;6109167;23;20030;-75
2023/03/04 05:41:04;;;;;;;3.50;3.30;;;;;;;3.02;100.00;101942.03;6078591;23;20125;-75
2023/03/04 05:43:31;;;;;;;3.45;3.25;;;;;;;3.21;100.00;101963.66;6110838;23;20271;-74
2023/03/04 05:45:57;;;;;;;3.38;3.17;;;;;;;2.66;100.00;101876.38;6081093;23;20038;-74
2023/03/04 05:48:24;;;;;;;3.10;3.00;;;;;;;2.92;100.00;101919.59;6054299;23;20278;-73
2023/03/04 05:50:59;;;;;;;3.00;2.90;;;;;;;3.40;100.00;101999.06;6080601;23;20097;-76
2023/03/04 05:53:26;;;;;;;3.45;3.30;;;;;;;2.89;100.00;101904.06;6053229;23;20038;-74
2023/03/04 05:55:53;;;;;;;4.38;3.97;;;;;;;2.78;100.00;101893.66;6083103;23;20480;-74
2023/03/04 05:58:19;;;;;;;3.40;3.30;;;;;;;3.27;100.00;101980.91;6104098;23;20254;-75
2023/03/04 06:00:46;;;;;;;3.65;3.45;;;;;;;3.39;100.00;101991.31;6050514;23;20097;-74
2023/03/04 06:03:18;;;;;;;2.88;2.78;;;;;;;3.38;100.00;101998.22;6080997;23;20147;-75
2023/03/04 06:05:44;;;;;;;3.95;3.65;;;;;;;2.86;100.00;101919.59;6081670;23;20293;-77
2023/03/04 06:08:11;;;;;;;3.10;3.00;;;;;;;3.20;100.00;101986.13;6032868;23;20682;-74
2023/03/04 06:10:39;;;;;;;2.92;2.83;;;;;;;2.92;100.00;101930.81;6051827;23;20635;-77
2023/03/04 06:13:07;;;;;;;4.00;3.70;;;;;;;3.08;100.00;101949.81;6109936;23;20025;-75
2023/03/04 06:15:33;;;;;;;3.00;2.90;;;;;;;3.15;100.00;101953.28;6080369;23;20041;-72
2023/03/04 06:18:00;;;;;;;2.90;2.80;;;;;;;3.41;100.00;102007.75;6053996;23;20586;-71
2023/03/04 06:20:27;;;;;;;3.92;3.72;;;;;;;2.98;100.00;101929.94;6104707;23;20092;-71
2023/03/04 06:22:53;;;;;;;3.00;2.90;;;;;;;3.33;100.00;102001.69;6040374;23;20448;-72
2023/03/04 06:25:19;;;;;;;3.70;3.40;;;;;;;3.38;100.00;102018.09;6079972;23;20086;-74
2023/03/04 06:27:46;;;;;;;5.03;4.10;;;;;;;3.27;100.00;102009.47;6082068;23;20109;-71
2023/03/04 06:30:16;;;;;;;3.17;3.03;;;;;;;3.36;100.00;102023.28;6084633;23;20017;-73
2023/03/04 06:32:46;;;;;;;2.88;2.78;;;;;;;2.94;100.00;101948.97;6059062;23;20030;-72
2023/03/04 06:35:13;;;;;;;2.92;2.83;;;;;;;3.29;100.00;102006.03;6108107;23;20051;-73
2023/03/04 06:37:40;;;;;;;3.50;3.30;;;;;;;3.06;100.00;101998.22;6053881;23;20042;-74
2023/03/04 06:40:07;;;;;;;3.53;3.38;;;;;;;3.18;100.00;101998.22;6108183;23;20041;-74
2023/03/04 06:42:34;;;;;;;4.07;3.85;;;;;;;3.45;100.00;102035.41;6059556;23;20026;-71
2023/03/04 06:45:03;;;;;;;5.28;4.70;;;;;;;3.45;100.00;102037.13;6111849;23;20079;-71
2023/03/04 06:47:29;;;;;;;3.33;3.20;;;;;;;2.90;100.00;101953.28;6034775;23;20050;-73
2023/03/04 06:49:56;;;;;;;3.20;3.00;;;;;;;2.94;100.00;101943.78;6110119;23;20033;-71
2023/03/04 06:52:22;;;;;;;2.90;2.80;;;;;;;3.39;100.00;102030.22;6080687;23;20025;-74
2023/03/04 06:54:48;;;;;;;3.38;3.28;;;;;;;3.20;100.00;101983.53;6103542;23;20086;-72
2023/03/04 06:57:15;;;;;;;3.95;3.65;;;;;;;2.72;100.00;101893.69;6083999;23;20536;-72
2023/03/04 06:59:41;;;;;;;3.90;3.15;;;;;;;3.17;100.00;101962.78;6106768;23;20029;-76
2023/03/04 07:02:11;;;;;;;3.47;3.38;;;;;;;2.46;100.00;101852.22;6081984;23;20075;-74
2023/03/04 07:04:38;;;;;;;2.90;2.80;;;;;;;3.50;100.00;102025.88;6107523;23;20480;-75
2023/03/04 07:07:04;;;;;;;3.55;3.35;;;;;;;3.60;100.00;102035.38;6082311;23;20734;-71
2023/03/04 07:09:31;;;;;;;4.05;3.85;;;;;;;3.28;100.00;101967.94;6054223;23;20042;-73
2023/03/04 07:11:57;;;;;;;3.45;3.25;;;;;;;3.56;100.00;102012.88;6106658;23;20047;-72
2023/03/04 07:14:24;;;;;;;3.53;3.33;;;;;;;3.35;100.00;101990.44;6081903;23;20034;-75
2023/03/04 07:16:51;;;;;;;4.13;3.17;;;;;;;3.64;100.00;102025.84;6050870;23;20014;-71
2023/03/04 07:19:17;;;;;;;2.90;2.80;;;;;;;3.58;100.00;102023.28;6080866;23;20071;-70
2023/03/04 07:21:44;;;;;;;3.05;2.95;;;;;;;3.68;100.00;102029.31;6109825;23;20445;-73
2023/03/04 07:24:10;;;;;;;4.25;4.05;;;;;;;2.60;100.00;101837.53;6052691;23;20086;-73
2023/03/04 07:26:37;;;;;;;6.13;3.92;;;;;;;3.23;100.00;101961.94;6083202;23;20025;-72
2023/03/04 07:29:04;;;;;;;3.10;3.00;;;;;;;3.68;100.00;102037.09;6059411;23;20195;-74
2023/03/04 07:31:33;;;;;;;3.08;2.97;;;;;;;3.71;100.00;102031.88;6104086;23;20033;-70
2023/03/04 07:34:05;;;;;;;9.43;5.18;;;;;;;3.60;100.00;102021.53;6081384;23;20120;-72
2023/03/04 07:36:34;;;;;;;4.15;3.75;;;;;;;2.51;100.00;101842.72;6048454;23;20051;-73
2023/03/04 07:39:00;;;;;;;3.70;3.45;;;;;;;3.36;100.00;101996.50;6105731;23;20041;-73
2023/03/04 07:41:28;;;;;;;3.45;3.30;;;;;;;3.70;100.00;102045.75;6034622;23;20095;-73
2023/03/04 07:43:58;;;;;;;3.38;3.20;;;;;;;3.71;100.00;102053.53;6083490;23;20224;-71
2023/03/04 07:46:25;;;;;;;3.08;2.97;;;;;;;3.33;100.00;101991.31;6078085;23;20018;-73
2023/03/04 07:48:52;;;;;;;3.40;2.97;;;;;;;3.79;100.00;102056.13;6094062;23;20396;-72
2023/03/04 07:51:21;;;;;;;3.15;2.92;;;;;;;3.53;100.00;102006.84;6081036;23;20254;-71
2023/03/04 07:53:50;;;;;;;3.63;3.42;;;;;;;3.91;100.00;102073.38;6102856;23;20390;-73
2023/03/04 07:56:20;;;;;;;2.92;2.83;;;;;;;3.54;100.00;102001.63;6079138;23;20267;-71
2023/03/04 07:58:47;;;;;;;3.40;3.20;;;;;;;3.90;100.00;102063.88;6047877;23;20492;-74
2023/03/04 08:01:16;;;;;;;2.90;2.80;;;;;;;3.98;100.00;102070.78;6105183;23;20025;-75
2023/03/04 08:03:43;;;;;;;3.40;3.20;;;;;;;4.02;100.00;102070.78;6052451;23;20240;-74
2023/03/04 08:06:12;;;;;;;3.67;3.47;;;;;;;3.73;100.00;102022.38;6081142;23;20029;-73
2023/03/04 08:08:42;;;;;;;3.20;3.10;;;;;;;3.70;100.00;102012.00;6060926;23;20533;-73
2023/03/04 08:11:14;;;;;;;2.95;2.85;;;;;;;3.60;100.00;101998.19;6104313;23;20431;-72
2023/03/04 08:13:41;;;;;;;3.10;3.00;;;;;;;3.93;100.00;102080.34;6076722;23;20309;-73
2023/03/04 08:16:11;;;;;;;3.70;3.50;;;;;;;2.89;100.00;101909.22;6102301;23;20020;-74
2023/03/04 08:18:39;;;;;;;13.85;4.00;;;;;;;4.02;100.00;102073.38;6060284;23;20942;-75
2023/03/04 08:21:11;;;;;;;3.40;3.20;;;;;;;3.92;100.00;102039.63;6108836;23;20008;-73
2023/03/04 08:23:38;;;;;;;3.57;3.37;;;;;;;4.30;100.00;102089.75;6078611;23;21081;-72
2023/03/04 08:26:11;;;;;;;3.35;3.05;;;;;;;4.27;100.00;102069.84;6047631;23;20041;-75
2023/03/04 08:28:38;;;;;;;;;;;;;;;4.44;100.00;102097.47;6106378;23;20053;-74
2023/03/04 08:31:05;;;;;;;2.97;2.88;;;;;;;4.20;100.00;102075.91;6066718;23;19973;-74
2023/03/04 08:33:32;;;;;;;3.30;3.17;;;;;;;3.91;100.00;102018.84;6080828;23;20049;-72
2023/03/04 08:35:59;;;;;;;3.42;3.22;;;;;;;4.14;100.00;102066.41;6080544;23;22234;-75
2023/03/04 08:38:25;;;;;;;2.97;2.88;;;;;;;4.37;100.00;102118.31;6051937;23;20022;-74
2023/03/04 08:40:54;;;;;;;3.08;2.97;;;;;;;4.10;100.00;102076.81;6103878;23;20037;-72
2023/03/04 08:43:21;;;;;;;3.25;3.15;;;;;;;3.91;100.00;102057.81;6076504;23;20094;-72
2023/03/04 08:45:48;;;;;;;3.10;3.00;;;;;;;4.28;100.00;102117.47;6104864;23;20029;-70
2023/03/04 08:48:15;;;;;;;3.20;3.10;;;;;;;3.72;100.00;102039.69;6058444;23;20047;-75
2023/03/04 08:50:43;;;;;;;6.65;4.05;;;;;;;3.36;100.00;101963.63;6048892;23;20321;-72
2023/03/04 08:53:11;;;;;;;3.85;3.55;;;;;;;4.58;100.00;102119.94;6073870;23;20029;-72
2023/03/04 08:55:38;;;;;;;3.20;3.10;;;;;;;4.74;100.00;102122.47;6048219;23;20230;-72
2023/03/04 08:58:05;;;;;;;3.20;3.00;;;;;;;5.08;100.00;102130.94;6048297;23;20034;-74
2023/03/04 09:00:34;;;;;;;3.67;3.47;;;;;;;4.91;100.00;102075.56;6109126;23;20275;-73
2023/03/04 09:03:02;;;;;;;3.60;3.40;;;;;;;5.19;100.00;102110.94;6077427;23;20228;-73
2023/03/04 09:05:30;;;;;;;3.45;3.35;;;;;;;5.00;100.00;102078.09;6053169;23;20075;-72
2023/03/04 09:07:57;;;;;;;3.88;3.58;;;;;;;5.39;100.00;102102.09;6109175;23;20017;-74
2023/03/04 09:10:24;;;;;;;3.13;3.03;;;;;;;5.39;100.00;102092.56;6030328;23;20052;-72
2023/03/04 09:12:50;;;;;;;4.85;3.22;;;;;;;4.85;100.00;102013.16;6109016;23;20017;-75
2023/03/04 09:15:17;;;;;;;3.50;3.30;;;;;;;5.20;100.00;102051.94;6055813;23;20261;-72
2023/03/04 09:17:44;;;;;;;6.97;3.63;;;;;;;4.93;100.00;102024.38;6107616;23;20497;-74
2023/03/04 09:20:11;;;;;;;6.78;4.05;;;;;;;4.13;98.28;101864.66;6082023;23;20026;-74
2023/03/04 09:22:39;;;;;;;3.40;3.20;;;;;;;5.09;97.98;102002.59;6084907;23;20181;-73
2023/03/04 09:25:09;;;;;;;3.42;3.25;;;;;;;5.30;96.58;102000.66;6056441;23;20456;-73
2023/03/04 09:27:38;;;;;;;5.15;3.72;;;;;;;5.56;94.73;102024.69;6084352;23;20055;-71
2023/03/04 09:30:06;;;;;;;3.40;3.25;;;;;;;5.45;94.29;102018.72;6045497;23;20226;-76
2023/03/04 09:32:33;;;;;;;8.15;4.18;;;;;;;5.17;93.79;101972.16;6103547;23;20037;-73
2023/03/04 09:34:59;;;;;;;3.70;3.50;;;;;;;5.46;95.12;102025.66;6083039;23;20113;-74
2023/03/04 09:37:26;;;;;;;4.00;3.80;;;;;;;5.19;94.27;101991.22;6106610;23;20025;-75
2023/03/04 09:39:52;;;;;;;3.80;3.60;;;;;;;5.34;94.99;102031.00;6087632;23;20538;-75
2023/03/04 09:42:46;;;;;;;3.30;3.20;;;;;;;4.69;95.86;101942.19;6107218;23;20076;-71
2023/03/04 09:45:18;;;;;;;3.30;3.20;;;;;;;5.11;99.02;102036.38;6077459;23;20087;-72
2023/03/04 09:47:46;;;;;;;3.75;3.55;;;;;;;5.06;100.00;102036.44;6053808;23;20053;-73
2023/03/04 09:50:13;;;;;;;3.00;2.90;;;;;;;4.96;100.00;102029.56;6082492;23;20037;-73
2023/03/04 09:52:55;;;;;;;15.65;3.70;;;;;;;5.49;100.00;102089.88;6026777;23;20188;-74
2023/03/04 09:55:33;;;;;;;8.20;3.33;;;;;;;5.18;100.00;102032.88;6105044;23;20049;-72
2023/03/04 09:58:21;;;;;;;3.58;3.38;;;;;;;5.42;100.00;102089.06;6080966;23;20053;-72
2023/03/04 10:01:00;;;;;;;4.00;3.80;;;;;;;5.35;100.00;102089.97;6051464;23;20621;-73
2023/03/04 10:03:42;;;;;;;;;;;;;;;5.38;100.00;102089.97;6085103;23;20514;-71
2023/03/04 10:06:11;;;;;;;3.20;3.10;;;;;;;4.94;100.00;102023.50;6053539;23;19918;-73
2023/03/04 10:08:57;;;;;;;3.33;3.22;;;;;;;4.71;100.00;101982.06;6109103;23;20036;-72
2023/03/04 10:11:49;;;;;;;3.90;3.60;;;;;;;5.52;100.00;102088.09;6061032;23;20464;-71
2023/03/04 10:14:37;;;;;;;3.33;3.22;;;;;;;5.54;100.00;102081.16;6080145;23;20365;-74
2023/03/04 10:17:42;;;;;;;4.28;3.70;;;;;;;5.64;100.00;102081.06;6065773;23;20034;-73
2023/03/04 10:20:20;;;;;;;3.63;3.42;;;;;;;5.71;100.00;102074.91;5972901;23;20033;-73
2023/03/04 10:22:49;;;;;;;3.30;3.20;;;;;;;5.80;100.00;102067.00;6080660;23;20026;-71
2023/03/04 10:25:26;;;;;;;3.35;3.25;;;;;;;5.74;100.00;102021.03;6086286;23;20013;-73
2023/03/04 10:28:02;;;;;;;3.28;3.17;;;;;;;6.00;98.92;102017.31;6057014;23;20010;-72
2023/03/04 10:30:54;;;;;;;3.90;3.70;;;;;;;6.20;95.34;102032.72;6102145;23;20029;-74
2023/03/04 10:33:25;;;;;;;5.22;4.75;;;;;;;6.24;94.24;102016.16;6058214;23;20049;-72
2023/03/04 10:36:15;;;;;;;8.23;3.50;;;;;;;6.20;94.34;101998.84;6077050;23;20025;-70
2023/03/04 10:38:42;;;;;;;3.78;3.42;;;;;;;5.86;92.59;101965.34;6061183;23;20030;-70
2023/03/04 10:41:24;;;;;;;3.40;3.30;;;;;;;5.51;93.77;101951.00;6107048;23;20092;-75
2023/03/04 10:44:15;;;;;;;3.42;3.33;;;;;;;5.15;96.12;101914.06;6081208;23;20040;-71
2023/03/04 10:46:47;;;;;;;4.95;4.00;;;;;;;5.44;97.61;101996.19;6050691;23;20022;-73
2023/03/04 10:49:18;;;;;;;3.80;3.50;;;;;;;5.83;99.66;102046.13;6085008;23;20041;-73
2023/03/04 10:51:48;;;;;;;3.63;3.42;;;;;;;6.69;98.71;102076.38;6079415;23;20093;-73
2023/03/04 10:54:50;;;;;;;3.70;3.50;;;;;;;7.06;93.13;102033.25;6109836;23;20334;-74
2023/03/04 10:57:18;;;;;;;3.75;3.60;;;;;;;7.11;89.57;101977.44;6059337;23;20026;-75
2023/03/04 10:59:50;;;;;;;3.58;3.47;;;;;;;7.07;87.11;101954.03;6105271;23;20048;-73
2023/03/04 11:02:30;;;;;;;3.83;3.63;;;;;;;6.95;87.37;101952.50;6080620;23;20428;-73
2023/03/04 11:05:06;;;;;;;3.40;3.30;;;;;;;6.70;85.95;101929.44;6050411;23;20023;-73
2023/03/04 11:07:43;;;;;;;3.70;3.47;;;;;;;6.18;86.71;101875.47;6108135;23;20108;-70
2023/03/04 11:10:38;;;;;;;3.40;3.30;;;;;;;6.34;87.19;101929.09;6031416;23;20038;-74
2023/03/04 11:13:10;;;;;;;3.65;3.45;;;;;;;6.44;87.89;101940.25;6085089;23;20107;-71
2023/03/04 11:15:55;;;;;;;3.50;3.40;;;;;;;6.09;88.96;101922.50;6063758;23;20053;-73
2023/03/04 11:18:42;;;;;;;3.90;3.70;;;;;;;5.82;90.14;101901.13;6077888;23;20048;-73
2023/03/04 11:21:19;;;;;;;3.90;3.70;;;;;;;5.85;91.00;101908.03;6054958;23;20037;-73
2023/03/04 11:24:08;;;;;;;3.50;3.30;;;;;;;5.83;92.21;101920.22;6110060;23;20095;-70
2023/03/04 11:27:01;;;;;;;3.92;3.17;;;;;;;5.87;91.71;101943.59;6031266;23;20245;-72
2023/03/04 11:29:47;;;;;;;3.50;3.40;;;;;;;5.98;92.65;101967.81;6099940;23;20480;-74
2023/03/04 11:32:23;;;;;;;3.30;3.20;;;;;;;5.88;93.86;101940.13;6076042;23;20467;-72
2023/03/04 11:35:00;;;;;;;3.20;3.08;;;;;;;6.43;92.73;101968.97;6051332;23;20018;-73
2023/03/04 11:38:27;;;;;;;3.65;3.45;;;;;;;6.67;90.82;101973.81;6106800;23;20342;-70